Betty R Gambarella — WDJ6855 — position and weather

sailwx.info

Track history (hours):
 
Tides and Currents Weather Stations Pressure Air Temp Water Temp Dewpoint Dewpoint Depression Visibility Wind Speed Wind Dir Waves Ship Positions

Betty R Gambarella

Owner: CURTIN MARITIME CORP, LONG BEACH, CA. More information available from US FCC via Universal Licensing System and Coast Guard Vessel Documentation Center.

Last reported at 2018-Feb-07 09:00 UTC. Time now 2018-Feb-20 21:39 UTC.
Position N 33°06' W 118°00'.
Warning: this ship's position is 13 days out of date.

Length 33 m; draft 3.5 m.

Type: . MMSI: 368000890.

Date/timePositionNaut miles runAvg speedWind from/ knotsBaromVisibWave heightAir tempDewpointWater temp
2018-Feb-07 09:00N 33°06' W 118°00'4 6.4
2018-Feb-07 08:28N 33°09' W 118°02'3 6.5
2018-Feb-07 08:00N 33°12' W 118°03'4 6.5
2018-Feb-07 07:19N 33°16' W 118°05'13 6.8
2018-Feb-07 05:25N 33°28' W 118°11'3 6.9
2018-Feb-07 04:57N 33°31' W 118°12'3 7.0
2018-Feb-07 04:30N 33°34' W 118°13'3 6.6
2018-Feb-07 04:00N 33°37' W 118°13'4 7.0
2018-Feb-07 03:26N 33°41' W 118°12'3 5.4
2018-Feb-07 02:58N 33°44' W 118°12'1 2.4
2018-Feb-07 02:29N 33°44' W 118°13'2 2.4
2018-Feb-07 01:41N 33°46' W 118°13'0 0.0
2018-Feb-07 01:26N 33°46' W 118°13'0 0.0
2018-Feb-07 00:59N 33°46' W 118°13'0 0.0
2018-Feb-07 00:29N 33°46' W 118°13'0 0.0
2018-Feb-06 23:59N 33°46' W 118°13'0 0.0
2018-Feb-06 23:26N 33°46' W 118°13'0 0.0
2018-Feb-06 22:59N 33°46' W 118°13'0 0.2
2018-Feb-06 22:29N 33°46' W 118°13'0 0.0
2018-Feb-06 21:59N 33°46' W 118°13'0 0.1
2018-Feb-06 21:29N 33°46' W 118°13'0 0.0
2018-Feb-06 20:59N 33°46' W 118°13'0 0.0
2018-Feb-06 20:30N 33°46' W 118°13'0 0.0
2018-Feb-06 20:00N 33°46' W 118°13'0 0.0
2018-Feb-06 19:30N 33°46' W 118°13'0 0.0
2018-Feb-06 19:00N 33°46' W 118°13'0 0.0
2018-Feb-06 18:27N 33°46' W 118°13'0 0.0
2018-Feb-06 18:00N 33°46' W 118°13'0 0.0
2018-Feb-06 17:30N 33°46' W 118°13'0 0.0
2018-Feb-06 16:59N 33°46' W 118°13'0 0.0
2018-Feb-06 16:29N 33°46' W 118°13'0 0.0
2018-Feb-06 15:59N 33°46' W 118°13'0 0.0
2018-Feb-06 15:29N 33°46' W 118°13'0 0.0
2018-Feb-06 14:59N 33°46' W 118°13'0 0.0
2018-Feb-06 14:29N 33°46' W 118°13'0 0.0
2018-Feb-06 13:56N 33°46' W 118°13'0 0.0
2018-Feb-06 13:29N 33°46' W 118°13'0 0.0
2018-Feb-06 12:59N 33°46' W 118°13'0 0.0
2018-Feb-06 12:29N 33°46' W 118°13'0 0.0
2018-Feb-06 11:59N 33°46' W 118°13'0 0.0
2018-Feb-06 11:23N 33°46' W 118°13'0 0.0
2018-Feb-06 10:59N 33°46' W 118°13'0 0.0
2018-Feb-06 10:29N 33°46' W 118°13'0 0.0
2018-Feb-06 09:59N 33°46' W 118°13'0 0.0
2018-Feb-06 09:29N 33°46' W 118°13'0 0.0
2018-Feb-06 08:59N 33°46' W 118°13'0 0.0
2018-Feb-06 08:26N 33°46' W 118°13'0 0.0
2018-Feb-06 07:59N 33°46' W 118°13'0 0.0
2018-Feb-06 07:29N 33°46' W 118°13'0 0.0
2018-Feb-06 06:59N 33°46' W 118°13'0 0.0
2018-Feb-06 06:29N 33°46' W 118°13'0 0.0
2018-Feb-06 05:59N 33°46' W 118°13'0 0.0
2018-Feb-06 05:29N 33°46' W 118°13'0 0.0
2018-Feb-06 04:59N 33°46' W 118°13'0 0.0
2018-Feb-06 04:29N 33°46' W 118°13'0 0.0
2018-Feb-06 03:59N 33°46' W 118°13'0 0.0
2018-Feb-06 03:29N 33°46' W 118°13'0 0.0
2018-Feb-06 02:53N 33°46' W 118°13'0 0.0
2018-Feb-06 02:26N 33°46' W 118°13'0 0.0
2018-Feb-06 01:59N 33°46' W 118°13'0 0.0
2018-Feb-06 01:29N 33°46' W 118°13'0 0.0
2018-Feb-06 00:59N 33°46' W 118°13'0 0.0
2018-Feb-06 00:29N 33°46' W 118°13'0 0.0
2018-Feb-05 23:59N 33°46' W 118°13'0 0.0
2018-Feb-05 23:29N 33°46' W 118°13'0 0.0
2018-Feb-05 22:59N 33°46' W 118°13'0 0.0
2018-Feb-05 22:29N 33°46' W 118°13'0 0.0
2018-Feb-05 21:59N 33°46' W 118°13'0 0.0
2018-Feb-05 21:29N 33°46' W 118°13'0 0.0
2018-Feb-05 20:59N 33°46' W 118°13'0 0.0
2018-Feb-05 20:29N 33°46' W 118°13'0 0.0
2018-Feb-05 19:59N 33°46' W 118°13'0 0.0
2018-Feb-05 19:30N 33°46' W 118°13'0 0.0
2018-Feb-05 06:42N 33°46' W 118°13'0 0.3
2018-Feb-05 06:31N 33°46' W 118°13'4 4.1
2018-Feb-05 05:29N 33°43' W 118°16'1 2.2
2018-Feb-05 05:01N 33°44' W 118°16'0 0.0
2018-Feb-05 04:31N 33°44' W 118°16'0 0.0
2018-Feb-05 03:59N 33°44' W 118°16'0 0.0
2018-Feb-05 03:29N 33°44' W 118°16'0 0.0
2018-Feb-05 03:00N 33°44' W 118°16'0 0.0
2018-Feb-05 02:30N 33°44' W 118°16'0 0.0
2018-Feb-05 02:00N 33°44' W 118°16'2 4.5
2018-Feb-05 01:30N 33°42' W 118°17'17 9.3
2018-Feb-04 23:38N 33°43' W 118°38'210.1
2018-Feb-04 23:27N 33°44' W 118°40'510.3
2018-Feb-04 23:00N 33°47' W 118°45'5 9.9
2018-Feb-04 22:31N 33°49' W 118°50'5 9.8
2018-Feb-04 22:00N 33°51' W 118°55'5 9.7
2018-Feb-04 21:30N 33°54' W 118°60'5 9.8
2018-Feb-04 21:00N 33°56' W 119°05'10 9.6
2018-Feb-04 19:59N 34°01' W 119°15'5 9.5
2018-Feb-04 19:28N 34°03' W 119°21'4 9.2
2018-Feb-04 19:00N 34°04' W 119°26'5 9.2
2018-Feb-04 18:29N 34°05' W 119°31'510.3
2018-Feb-04 18:01N 34°07' W 119°37'5 9.9
2018-Feb-04 17:30N 34°08' W 119°43'19 9.6
2018-Feb-04 15:30N 34°13' W 120°05'5 9.7
2018-Feb-04 15:00N 34°15' W 120°11'5 9.8
2018-Feb-04 14:30N 34°16' W 120°16'5 9.8
2018-Feb-04 14:00N 34°17' W 120°22'5 9.7
2018-Feb-04 13:30N 34°18' W 120°28'5 9.5
2018-Feb-04 13:00N 34°20' W 120°33'5 9.3
2018-Feb-04 12:29N 34°21' W 120°39'5 9.2
2018-Feb-04 11:59N 34°22' W 120°44'4 9.0
2018-Feb-04 11:29N 34°24' W 120°50'14 9.4
2018-Feb-04 10:01N 34°32' W 121°03'9 8.9
2018-Feb-04 09:01N 34°38' W 121°11'5 9.7
2018-Feb-04 08:31N 34°42' W 121°14'5 9.5
2018-Feb-04 08:00N 34°47' W 121°17'5 9.5
2018-Feb-04 07:30N 34°51' W 121°20'5 9.8
2018-Feb-04 07:01N 34°55' W 121°23'5 9.7
2018-Feb-04 06:31N 34°59' W 121°26'510.1
2018-Feb-04 06:01N 35°03' W 121°29'510.2
2018-Feb-04 05:31N 35°08' W 121°32'610.1
2018-Feb-04 04:57N 35°12' W 121°36'510.0
2018-Feb-04 04:27N 35°17' W 121°39'4 9.7
2018-Feb-04 04:00N 35°20' W 121°42'148 9.6
2018-Feb-03 12:39N 37°27' W 123°16'2 9.6
2018-Feb-03 12:25N 37°29' W 123°18'4 9.5
2018-Feb-03 12:00N 37°32' W 123°20'13 9.5
2018-Feb-03 10:40N 37°43' W 123°28'2 9.4
2018-Feb-03 10:27N 37°45' W 123°30'5 9.4
2018-Feb-03 09:58N 37°49' W 123°32'4 9.2
2018-Feb-03 09:30N 37°53' W 123°35'5 9.2
2018-Feb-03 09:00N 37°57' W 123°37'5 9.2
2018-Feb-03 08:30N 38°01' W 123°40'5 9.3
2018-Feb-03 08:00N 38°05' W 123°43'14 9.3
2018-Feb-03 06:30N 38°18' W 123°50'5 9.3
2018-Feb-03 06:00N 38°22' W 123°53'4 8.1
2018-Feb-03 05:30N 38°26' W 123°55'4 7.4
2018-Feb-03 04:59N 38°30' W 123°57'437 9.5
2018-Feb-01 07:11N 45°45' W 124°46'3 9.2
2018-Feb-01 06:49N 45°48' W 124°46'3 9.2
2018-Feb-01 06:30N 45°51' W 124°46'5 9.2
2018-Feb-01 06:00N 45°56' W 124°46'6 9.1
2018-Feb-01 05:18N 46°02' W 124°46'4 9.1
2018-Feb-01 04:51N 46°06' W 124°46'3 9.1
2018-Feb-01 04:30N 46°09' W 124°46'5 9.2
2018-Feb-01 04:00N 46°14' W 124°46'11 9.2
2018-Feb-01 02:49N 46°25' W 124°46'3 8.4
2018-Feb-01 02:30N 46°27' W 124°46'4 8.5
2018-Feb-01 02:00N 46°32' W 124°47'4 8.9
2018-Feb-01 01:30N 46°36' W 124°48'4 8.9
2018-Feb-01 01:00N 46°40' W 124°49'5 9.1
2018-Feb-01 00:30N 46°45' W 124°49'5 9.1
2018-Feb-01 00:00N 46°50' W 124°50'96 8.7
2018-Jan-31 12:59N 48°26' W 124°49'3 7.1
2018-Jan-31 12:30N 48°27' W 124°44'4 7.9
2018-Jan-31 12:00N 48°26' W 124°38'4 8.4
2018-Jan-31 11:30N 48°24' W 124°33'4 8.0
2018-Jan-31 11:00N 48°22' W 124°27'4 7.9
2018-Jan-31 10:30N 48°20' W 124°22'4 7.6
2018-Jan-31 10:00N 48°19' W 124°17'4 7.4
2018-Jan-31 09:28N 48°17' W 124°11'5 7.5
2018-Jan-31 08:52N 48°15' W 124°05'11 7.1
2018-Jan-31 07:22N 48°12' W 123°50'3 7.5
2018-Jan-31 06:58N 48°12' W 123°45'4 8.7
2018-Jan-31 06:29N 48°12' W 123°39'5 9.8
2018-Jan-31 06:00N 48°13' W 123°32'611.1
2018-Jan-31 05:30N 48°12' W 123°24'611.4
2018-Jan-31 04:59N 48°12' W 123°15'510.3
2018-Jan-31 04:30N 48°12' W 123°07'2711.0
2018-Jan-31 02:01N 47°58' W 122°32'012.7
2018-Jan-31 02:00N 47°58' W 122°32'510.9
2018-Jan-31 01:30N 47°53' W 122°28'510.4
2018-Jan-31 01:00N 47°48' W 122°26'8 8.2
2018-Jan-31 00:00N 47°40' W 122°24'0 0.2
2018-Jan-30 23:30N 47°40' W 122°24'0 0.4
2018-Jan-30 23:00N 47°40' W 122°23'0 0.0
2018-Jan-30 22:30N 47°40' W 122°23'0 0.0
2018-Jan-30 21:23N 47°40' W 122°23'  
Track history (hours):
 
Tides and Currents Weather Stations Pressure Air Temp Water Temp Dewpoint Dewpoint Depression Visibility Wind Speed Wind Dir Waves Ship Positions

Betty R Gambarella

Owner: CURTIN MARITIME CORP, LONG BEACH, CA. More information available from US FCC via Universal Licensing System and Coast Guard Vessel Documentation Center.

Last reported at 2018-Feb-07 09:00 UTC. Time now 2018-Feb-20 21:39 UTC.
Position N 33°06' W 118°00'.
Warning: this ship's position is 13 days out of date.

Length 33 m; draft 3.5 m.

Type: . MMSI: 368000890.

Date/timePositionNaut miles runAvg speedWind from/ knotsBaromVisibWave heightAir tempDewpointWater temp
2018-Feb-07 09:00N 33°06' W 118°00'4 6.4
2018-Feb-07 08:28N 33°09' W 118°02'3 6.5
2018-Feb-07 08:00N 33°12' W 118°03'4 6.5
2018-Feb-07 07:19N 33°16' W 118°05'13 6.8
2018-Feb-07 05:25N 33°28' W 118°11'3 6.9
2018-Feb-07 04:57N 33°31' W 118°12'3 7.0
2018-Feb-07 04:30N 33°34' W 118°13'3 6.6
2018-Feb-07 04:00N 33°37' W 118°13'4 7.0
2018-Feb-07 03:26N 33°41' W 118°12'3 5.4
2018-Feb-07 02:58N 33°44' W 118°12'1 2.4
2018-Feb-07 02:29N 33°44' W 118°13'2 2.4
2018-Feb-07 01:41N 33°46' W 118°13'0 0.0
2018-Feb-07 01:26N 33°46' W 118°13'0 0.0
2018-Feb-07 00:59N 33°46' W 118°13'0 0.0
2018-Feb-07 00:29N 33°46' W 118°13'0 0.0
2018-Feb-06 23:59N 33°46' W 118°13'0 0.0
2018-Feb-06 23:26N 33°46' W 118°13'0 0.0
2018-Feb-06 22:59N 33°46' W 118°13'0 0.2
2018-Feb-06 22:29N 33°46' W 118°13'0 0.0
2018-Feb-06 21:59N 33°46' W 118°13'0 0.1
2018-Feb-06 21:29N 33°46' W 118°13'0 0.0
2018-Feb-06 20:59N 33°46' W 118°13'0 0.0
2018-Feb-06 20:30N 33°46' W 118°13'0 0.0
2018-Feb-06 20:00N 33°46' W 118°13'0 0.0
2018-Feb-06 19:30N 33°46' W 118°13'0 0.0
2018-Feb-06 19:00N 33°46' W 118°13'0 0.0
2018-Feb-06 18:27N 33°46' W 118°13'0 0.0
2018-Feb-06 18:00N 33°46' W 118°13'0 0.0
2018-Feb-06 17:30N 33°46' W 118°13'0 0.0
2018-Feb-06 16:59N 33°46' W 118°13'0 0.0
2018-Feb-06 16:29N 33°46' W 118°13'0 0.0
2018-Feb-06 15:59N 33°46' W 118°13'0 0.0
2018-Feb-06 15:29N 33°46' W 118°13'0 0.0
2018-Feb-06 14:59N 33°46' W 118°13'0 0.0
2018-Feb-06 14:29N 33°46' W 118°13'0 0.0
2018-Feb-06 13:56N 33°46' W 118°13'0 0.0
2018-Feb-06 13:29N 33°46' W 118°13'0 0.0
2018-Feb-06 12:59N 33°46' W 118°13'0 0.0
2018-Feb-06 12:29N 33°46' W 118°13'0 0.0
2018-Feb-06 11:59N 33°46' W 118°13'0 0.0
2018-Feb-06 11:23N 33°46' W 118°13'0 0.0
2018-Feb-06 10:59N 33°46' W 118°13'0 0.0
2018-Feb-06 10:29N 33°46' W 118°13'0 0.0
2018-Feb-06 09:59N 33°46' W 118°13'0 0.0
2018-Feb-06 09:29N 33°46' W 118°13'0 0.0
2018-Feb-06 08:59N 33°46' W 118°13'0 0.0
2018-Feb-06 08:26N 33°46' W 118°13'0 0.0
2018-Feb-06 07:59N 33°46' W 118°13'0 0.0
2018-Feb-06 07:29N 33°46' W 118°13'0 0.0
2018-Feb-06 06:59N 33°46' W 118°13'0 0.0
2018-Feb-06 06:29N 33°46' W 118°13'0 0.0
2018-Feb-06 05:59N 33°46' W 118°13'0 0.0
2018-Feb-06 05:29N 33°46' W 118°13'0 0.0
2018-Feb-06 04:59N 33°46' W 118°13'0 0.0
2018-Feb-06 04:29N 33°46' W 118°13'0 0.0
2018-Feb-06 03:59N 33°46' W 118°13'0 0.0
2018-Feb-06 03:29N 33°46' W 118°13'0 0.0
2018-Feb-06 02:53N 33°46' W 118°13'0 0.0
2018-Feb-06 02:26N 33°46' W 118°13'0 0.0
2018-Feb-06 01:59N 33°46' W 118°13'0 0.0
2018-Feb-06 01:29N 33°46' W 118°13'0 0.0
2018-Feb-06 00:59N 33°46' W 118°13'0 0.0
2018-Feb-06 00:29N 33°46' W 118°13'0 0.0
2018-Feb-05 23:59N 33°46' W 118°13'0 0.0
2018-Feb-05 23:29N 33°46' W 118°13'0 0.0
2018-Feb-05 22:59N 33°46' W 118°13'0 0.0
2018-Feb-05 22:29N 33°46' W 118°13'0 0.0
2018-Feb-05 21:59N 33°46' W 118°13'0 0.0
2018-Feb-05 21:29N 33°46' W 118°13'0 0.0
2018-Feb-05 20:59N 33°46' W 118°13'0 0.0
2018-Feb-05 20:29N 33°46' W 118°13'0 0.0
2018-Feb-05 19:59N 33°46' W 118°13'0 0.0
2018-Feb-05 19:30N 33°46' W 118°13'0 0.0
2018-Feb-05 06:42N 33°46' W 118°13'0 0.3
2018-Feb-05 06:31N 33°46' W 118°13'4 4.1
2018-Feb-05 05:29N 33°43' W 118°16'1 2.2
2018-Feb-05 05:01N 33°44' W 118°16'0 0.0
2018-Feb-05 04:31N 33°44' W 118°16'0 0.0
2018-Feb-05 03:59N 33°44' W 118°16'0 0.0
2018-Feb-05 03:29N 33°44' W 118°16'0 0.0
2018-Feb-05 03:00N 33°44' W 118°16'0 0.0
2018-Feb-05 02:30N 33°44' W 118°16'0 0.0
2018-Feb-05 02:00N 33°44' W 118°16'2 4.5
2018-Feb-05 01:30N 33°42' W 118°17'17 9.3
2018-Feb-04 23:38N 33°43' W 118°38'210.1
2018-Feb-04 23:27N 33°44' W 118°40'510.3
2018-Feb-04 23:00N 33°47' W 118°45'5 9.9
2018-Feb-04 22:31N 33°49' W 118°50'5 9.8
2018-Feb-04 22:00N 33°51' W 118°55'5 9.7
2018-Feb-04 21:30N 33°54' W 118°60'5 9.8
2018-Feb-04 21:00N 33°56' W 119°05'10 9.6
2018-Feb-04 19:59N 34°01' W 119°15'5 9.5
2018-Feb-04 19:28N 34°03' W 119°21'4 9.2
2018-Feb-04 19:00N 34°04' W 119°26'5 9.2
2018-Feb-04 18:29N 34°05' W 119°31'510.3
2018-Feb-04 18:01N 34°07' W 119°37'5 9.9
2018-Feb-04 17:30N 34°08' W 119°43'19 9.6
2018-Feb-04 15:30N 34°13' W 120°05'5 9.7
2018-Feb-04 15:00N 34°15' W 120°11'5 9.8
2018-Feb-04 14:30N 34°16' W 120°16'5 9.8
2018-Feb-04 14:00N 34°17' W 120°22'5 9.7
2018-Feb-04 13:30N 34°18' W 120°28'5 9.5
2018-Feb-04 13:00N 34°20' W 120°33'5 9.3
2018-Feb-04 12:29N 34°21' W 120°39'5 9.2
2018-Feb-04 11:59N 34°22' W 120°44'4 9.0
2018-Feb-04 11:29N 34°24' W 120°50'14 9.4
2018-Feb-04 10:01N 34°32' W 121°03'9 8.9
2018-Feb-04 09:01N 34°38' W 121°11'5 9.7
2018-Feb-04 08:31N 34°42' W 121°14'5 9.5
2018-Feb-04 08:00N 34°47' W 121°17'5 9.5
2018-Feb-04 07:30N 34°51' W 121°20'5 9.8
2018-Feb-04 07:01N 34°55' W 121°23'5 9.7
2018-Feb-04 06:31N 34°59' W 121°26'510.1
2018-Feb-04 06:01N 35°03' W 121°29'510.2
2018-Feb-04 05:31N 35°08' W 121°32'610.1
2018-Feb-04 04:57N 35°12' W 121°36'510.0
2018-Feb-04 04:27N 35°17' W 121°39'4 9.7
2018-Feb-04 04:00N 35°20' W 121°42'148 9.6
2018-Feb-03 12:39N 37°27' W 123°16'2 9.6
2018-Feb-03 12:25N 37°29' W 123°18'4 9.5
2018-Feb-03 12:00N 37°32' W 123°20'13 9.5
2018-Feb-03 10:40N 37°43' W 123°28'2 9.4
2018-Feb-03 10:27N 37°45' W 123°30'5 9.4
2018-Feb-03 09:58N 37°49' W 123°32'4 9.2
2018-Feb-03 09:30N 37°53' W 123°35'5 9.2
2018-Feb-03 09:00N 37°57' W 123°37'5 9.2
2018-Feb-03 08:30N 38°01' W 123°40'5 9.3
2018-Feb-03 08:00N 38°05' W 123°43'14 9.3
2018-Feb-03 06:30N 38°18' W 123°50'5 9.3
2018-Feb-03 06:00N 38°22' W 123°53'4 8.1
2018-Feb-03 05:30N 38°26' W 123°55'4 7.4
2018-Feb-03 04:59N 38°30' W 123°57'437 9.5
2018-Feb-01 07:11N 45°45' W 124°46'3 9.2
2018-Feb-01 06:49N 45°48' W 124°46'3 9.2
2018-Feb-01 06:30N 45°51' W 124°46'5 9.2
2018-Feb-01 06:00N 45°56' W 124°46'6 9.1
2018-Feb-01 05:18N 46°02' W 124°46'4 9.1
2018-Feb-01 04:51N 46°06' W 124°46'3 9.1
2018-Feb-01 04:30N 46°09' W 124°46'5 9.2
2018-Feb-01 04:00N 46°14' W 124°46'11 9.2
2018-Feb-01 02:49N 46°25' W 124°46'3 8.4
2018-Feb-01 02:30N 46°27' W 124°46'4 8.5
2018-Feb-01 02:00N 46°32' W 124°47'4 8.9
2018-Feb-01 01:30N 46°36' W 124°48'4 8.9
2018-Feb-01 01:00N 46°40' W 124°49'5 9.1
2018-Feb-01 00:30N 46°45' W 124°49'5 9.1
2018-Feb-01 00:00N 46°50' W 124°50'96 8.7
2018-Jan-31 12:59N 48°26' W 124°49'3 7.1
2018-Jan-31 12:30N 48°27' W 124°44'4 7.9
2018-Jan-31 12:00N 48°26' W 124°38'4 8.4
2018-Jan-31 11:30N 48°24' W 124°33'4 8.0
2018-Jan-31 11:00N 48°22' W 124°27'4 7.9
2018-Jan-31 10:30N 48°20' W 124°22'4 7.6
2018-Jan-31 10:00N 48°19' W 124°17'4 7.4
2018-Jan-31 09:28N 48°17' W 124°11'5 7.5
2018-Jan-31 08:52N 48°15' W 124°05'11 7.1
2018-Jan-31 07:22N 48°12' W 123°50'3 7.5
2018-Jan-31 06:58N 48°12' W 123°45'4 8.7
2018-Jan-31 06:29N 48°12' W 123°39'5 9.8
2018-Jan-31 06:00N 48°13' W 123°32'611.1
2018-Jan-31 05:30N 48°12' W 123°24'611.4
2018-Jan-31 04:59N 48°12' W 123°15'510.3
2018-Jan-31 04:30N 48°12' W 123°07'2711.0
2018-Jan-31 02:01N 47°58' W 122°32'012.7
2018-Jan-31 02:00N 47°58' W 122°32'510.9
2018-Jan-31 01:30N 47°53' W 122°28'510.4
2018-Jan-31 01:00N 47°48' W 122°26'8 8.2
2018-Jan-31 00:00N 47°40' W 122°24'0 0.2
2018-Jan-30 23:30N 47°40' W 122°24'0 0.4
2018-Jan-30 23:00N 47°40' W 122°23'0 0.0
2018-Jan-30 22:30N 47°40' W 122°23'0 0.0
2018-Jan-30 21:23N 47°40' W 122°23'  

Dump ship's entire track history